Time;durP1;ratioP1;P1;durP2;ratioP2;P2;SDS_P1;SDS_P2;PMS_P1;PMS_P2;Temp;Humidity;BMP_temperature;BMP_pressure;BME280_temperature;BME280_humidity;BME280_pressure;Samples;Min_cycle;Max_cycle;Signal;HPM_P1;HPM_P2
2023/07/30 00:01:53;;;;;;;4.80;4.50;;;;;;;15.72;100.00;96555.41;5014929;28;20287;-62
2023/07/30 00:04:22;;;;;;;4.43;4.13;;;;;;;15.73;100.00;96554.41;5023060;28;20254;-62
2023/07/30 00:06:50;;;;;;;6.60;4.83;;;;;;;15.75;100.00;96553.09;4941060;28;20919;-62
2023/07/30 00:09:22;;;;;;;4.87;4.47;;;;;;;15.73;100.00;96554.41;4988427;28;20215;-62
2023/07/30 00:11:51;;;;;;;5.13;4.73;;;;;;;15.62;100.00;96537.31;5011331;28;20216;-62
2023/07/30 00:14:18;;;;;;;4.17;3.87;;;;;;;15.71;100.00;96551.94;5020510;28;20259;-62
2023/07/30 00:16:46;;;;;;;5.00;4.60;;;;;;;15.69;100.00;96551.38;5015493;28;20632;-62
2023/07/30 00:19:14;;;;;;;4.80;4.40;;;;;;;15.69;100.00;96555.88;5013644;28;20201;-63
2023/07/30 00:21:45;;;;;;;4.97;4.37;;;;;;;15.70;100.00;96560.16;5008933;28;20224;-62
2023/07/30 00:24:13;;;;;;;4.53;4.13;;;;;;;15.69;100.00;96567.38;5016116;28;20568;-63
2023/07/30 00:26:41;;;;;;;4.87;4.37;;;;;;;15.67;100.00;96557.97;5013473;28;20360;-63
2023/07/30 00:29:10;;;;;;;4.70;4.40;;;;;;;15.68;100.00;96556.91;5014545;28;20208;-64
2023/07/30 00:31:38;;;;;;;5.03;4.63;;;;;;;15.70;100.00;96547.66;4998769;28;20232;-62
2023/07/30 00:34:06;;;;;;;5.17;4.60;;;;;;;15.69;100.00;96547.88;4978064;28;20496;-62
2023/07/30 00:36:34;;;;;;;5.10;4.70;;;;;;;15.72;100.00;96537.53;4983049;28;20466;-62
2023/07/30 00:39:03;;;;;;;5.03;4.50;;;;;;;15.67;100.00;96545.44;4934239;28;20351;-64
2023/07/30 00:41:30;;;;;;;4.80;4.50;;;;;;;15.71;100.00;96546.59;5016385;28;20229;-64
2023/07/30 00:43:58;;;;;;;4.80;4.50;;;;;;;15.72;100.00;96552.75;5008247;28;20251;-62
2023/07/30 00:46:27;;;;;;;5.50;4.37;;;;;;;15.76;100.00;96561.94;5016717;28;20240;-63
2023/07/30 00:48:55;;;;;;;4.63;4.30;;;;;;;15.82;100.00;96561.00;5009794;28;20208;-64
2023/07/30 00:51:23;;;;;;;4.77;4.47;;;;;;;15.80;100.00;96552.41;5014915;28;20240;-63
2023/07/30 00:53:51;;;;;;;5.03;4.73;;;;;;;15.84;100.00;96547.41;5013890;28;20230;-63
2023/07/30 00:56:19;;;;;;;6.00;5.17;;;;;;;15.83;100.00;96561.81;5014777;28;20274;-63
2023/07/30 00:58:48;;;;;;;5.50;5.00;;;;;;;15.86;100.00;96559.47;5012988;28;20888;-64
2023/07/30 01:01:15;;;;;;;5.10;4.63;;;;;;;15.90;100.00;96558.00;5015463;28;20249;-64
2023/07/30 01:03:45;;;;;;;5.30;4.93;;;;;;;15.91;100.00;96562.28;5012467;28;20200;-63
2023/07/30 01:06:13;;;;;;;5.50;5.00;;;;;;;15.97;100.00;96559.72;5008493;28;20311;-63
2023/07/30 01:08:41;;;;;;;5.90;5.37;;;;;;;15.99;100.00;96565.66;4955317;28;20853;-63
2023/07/30 01:11:09;;;;;;;5.60;5.10;;;;;;;15.99;100.00;96568.31;5012123;28;20219;-63
2023/07/30 01:13:36;;;;;;;4.90;4.40;;;;;;;15.96;100.00;96571.47;4885776;28;20315;-62
2023/07/30 01:16:06;;;;;;;5.27;4.83;;;;;;;15.87;100.00;96563.78;5016110;28;20240;-66
2023/07/30 01:18:34;;;;;;;5.03;4.73;;;;;;;15.89;100.00;96568.91;5012236;28;20228;-65
2023/07/30 01:21:03;;;;;;;5.20;4.87;;;;;;;15.90;100.00;96568.69;5011609;28;20346;-63
2023/07/30 01:23:31;;;;;;;5.33;4.93;;;;;;;15.86;100.00;96562.16;5010198;28;20447;-65
2023/07/30 01:26:03;;;;;;;5.43;4.93;;;;;;;15.94;100.00;96565.53;5015501;28;20212;-65
2023/07/30 01:28:36;;;;;;;5.10;4.80;;;;;;;15.97;100.00;96555.22;5009818;28;20215;-62
2023/07/30 01:31:06;;;;;;;5.73;5.33;;;;;;;15.94;100.00;96561.03;5014383;28;20340;-62
2023/07/30 01:33:33;;;;;;;5.57;5.10;;;;;;;15.95;100.00;96568.00;5009903;28;20232;-64
2023/07/30 01:36:03;;;;;;;5.97;5.47;;;;;;;15.94;100.00;96566.38;5014766;28;20262;-62
2023/07/30 01:38:31;;;;;;;6.23;5.63;;;;;;;15.94;100.00;96569.03;4957265;28;20237;-62
2023/07/30 01:40:59;;;;;;;5.50;4.97;;;;;;;16.00;100.00;96559.25;5015139;28;20278;-63
2023/07/30 01:43:26;;;;;;;6.07;5.57;;;;;;;16.01;100.00;96556.38;5005869;28;20778;-62
2023/07/30 01:45:54;;;;;;;5.40;5.00;;;;;;;16.05;100.00;96562.03;5011881;28;20305;-62
2023/07/30 01:48:22;;;;;;;5.33;5.03;;;;;;;16.05;100.00;96570.06;4894920;28;20255;-62
2023/07/30 01:50:49;;;;;;;6.40;5.90;;;;;;;16.08;100.00;96566.13;5014195;28;20228;-62
2023/07/30 01:53:18;;;;;;;6.03;5.57;;;;;;;16.13;100.00;96571.56;5010440;28;20274;-62
2023/07/30 01:55:46;;;;;;;6.27;5.67;;;;;;;16.18;100.00;96564.47;5007588;28;20432;-62
2023/07/30 01:58:14;;;;;;;6.50;6.00;;;;;;;16.17;100.00;96559.34;5004380;28;20535;-62
2023/07/30 02:00:42;;;;;;;6.80;6.30;;;;;;;16.18;100.00;96558.31;5013447;28;20685;-62
2023/07/30 02:03:09;;;;;;;6.67;6.13;;;;;;;16.20;100.00;96557.03;5009950;28;20227;-63
2023/07/30 02:05:37;;;;;;;7.20;5.60;;;;;;;16.15;100.00;96551.59;5013781;28;20208;-62
2023/07/30 02:08:04;;;;;;;5.17;4.87;;;;;;;16.19;100.00;96558.09;5003241;28;20270;-62
2023/07/30 02:10:33;;;;;;;6.40;5.90;;;;;;;16.18;100.00;96558.31;5013307;28;20208;-62
2023/07/30 02:13:01;;;;;;;6.80;6.23;;;;;;;16.05;100.00;96544.16;4952789;28;20213;-62
2023/07/30 02:15:29;;;;;;;6.37;5.87;;;;;;;16.17;100.00;96565.53;5013636;28;20236;-61
2023/07/30 02:17:57;;;;;;;6.00;5.60;;;;;;;16.22;100.00;96567.47;5007569;28;20204;-65
2023/07/30 02:20:24;;;;;;;7.13;5.73;;;;;;;16.20;100.00;96570.41;5011907;28;20291;-65
2023/07/30 02:22:52;;;;;;;6.23;5.80;;;;;;;16.22;100.00;96572.81;4895826;28;20232;-64
2023/07/30 02:25:20;;;;;;;6.73;6.23;;;;;;;16.23;100.00;96568.31;5010792;28;20216;-65
2023/07/30 02:27:49;;;;;;;6.83;6.33;;;;;;;16.24;100.00;96569.94;5002904;28;20212;-65
2023/07/30 02:30:17;;;;;;;7.07;6.57;;;;;;;16.28;100.00;96571.88;5012314;28;20796;-64
2023/07/30 02:32:44;;;;;;;7.20;6.57;;;;;;;16.29;100.00;96573.53;5009111;28;20306;-64
2023/07/30 02:35:12;;;;;;;7.50;6.90;;;;;;;16.29;100.00;96572.72;5010320;28;20343;-62
2023/07/30 02:37:40;;;;;;;6.47;5.97;;;;;;;16.23;100.00;96566.44;5003700;28;20208;-61
2023/07/30 02:40:09;;;;;;;6.77;6.17;;;;;;;16.29;100.00;96578.88;4955609;28;20215;-62
2023/07/30 02:42:37;;;;;;;7.40;6.80;;;;;;;16.32;100.00;96586.44;5013540;28;20228;-62
2023/07/30 02:45:07;;;;;;;7.63;6.20;;;;;;;16.31;100.00;96579.44;4955022;28;20303;-62
2023/07/30 02:47:34;;;;;;;7.67;7.00;;;;;;;16.28;100.00;96568.41;5011757;28;20285;-62
2023/07/30 02:50:02;;;;;;;6.33;5.77;;;;;;;16.24;100.00;96565.38;4948003;28;20205;-61
2023/07/30 02:52:30;;;;;;;9.90;7.13;;;;;;;16.29;100.00;96565.50;5013772;28;20600;-63
2023/07/30 02:54:58;;;;;;;6.57;6.07;;;;;;;16.13;100.00;96531.47;4896838;28;20273;-63
2023/07/30 02:57:25;;;;;;;6.17;5.67;;;;;;;16.13;100.00;96528.81;5011553;28;20743;-63
2023/07/30 02:59:53;;;;;;;7.40;6.30;;;;;;;16.15;100.00;96489.31;5005094;28;20721;-64
2023/07/30 03:02:22;;;;;;;6.43;5.93;;;;;;;16.12;100.00;96479.09;5013222;28;20220;-64
2023/07/30 03:04:50;;;;;;;6.53;6.03;;;;;;;16.05;100.00;96519.28;5009769;28;20536;-64
2023/07/30 03:07:18;;;;;;;7.23;6.53;;;;;;;16.06;100.00;96542.28;5010931;28;20196;-65
2023/07/30 03:09:46;;;;;;;6.53;6.03;;;;;;;16.05;100.00;96540.66;5006971;28;20205;-64
2023/07/30 03:12:13;;;;;;;6.63;6.10;;;;;;;16.10;100.00;96542.66;5012619;28;20618;-64
2023/07/30 03:14:41;;;;;;;7.50;6.83;;;;;;;16.18;100.00;96540.44;4954801;28;20315;-65
2023/07/30 03:17:09;;;;;;;6.73;6.03;;;;;;;16.19;100.00;96531.38;5011084;28;20291;-67
2023/07/30 03:19:38;;;;;;;5.87;5.47;;;;;;;16.20;100.00;96538.34;5011552;28;20628;-65
2023/07/30 03:22:06;;;;;;;6.60;6.00;;;;;;;16.19;100.00;96536.72;5009298;28;20228;-65
2023/07/30 03:24:33;;;;;;;6.47;5.67;;;;;;;16.19;100.00;96542.06;4929864;28;20560;-63
2023/07/30 03:27:01;;;;;;;6.30;5.80;;;;;;;16.17;100.00;96537.97;5005854;28;20634;-64
2023/07/30 03:29:29;;;;;;;6.30;5.73;;;;;;;16.13;100.00;96539.50;5007613;28;20248;-63
2023/07/30 03:31:56;;;;;;;6.37;5.87;;;;;;;16.17;100.00;96540.66;5022787;28;20228;-63
2023/07/30 03:34:24;;;;;;;6.43;5.93;;;;;;;16.12;100.00;96537.88;5016884;28;20215;-63
2023/07/30 03:36:53;;;;;;;6.13;5.63;;;;;;;16.07;100.00;96554.59;5011391;28;20200;-66
2023/07/30 03:39:21;;;;;;;6.47;5.97;;;;;;;16.14;100.00;96559.84;5010141;28;20207;-63
2023/07/30 03:41:48;;;;;;;5.80;5.40;;;;;;;16.17;100.00;96570.88;5013018;28;20251;-63
2023/07/30 03:44:16;;;;;;;6.57;6.13;;;;;;;16.14;100.00;96570.53;5002481;28;20274;-63
2023/07/30 03:46:43;;;;;;;6.87;6.37;;;;;;;16.22;100.00;96585.38;5011828;28;20294;-63
2023/07/30 03:49:11;;;;;;;6.60;5.90;;;;;;;16.16;100.00;96582.63;4908884;28;23166;-62
2023/07/30 03:51:39;;;;;;;7.27;6.77;;;;;;;16.15;100.00;96580.16;4994848;28;20233;-63
2023/07/30 03:54:09;;;;;;;7.93;6.17;;;;;;;16.19;100.00;96583.97;4942804;28;21324;-62
2023/07/30 03:56:36;;;;;;;5.63;5.30;;;;;;;16.19;100.00;96583.97;4967300;28;20298;-62
2023/07/30 03:59:04;;;;;;;6.43;6.00;;;;;;;16.04;100.00;96560.41;4980830;28;20247;-62
2023/07/30 04:01:33;;;;;;;5.93;5.43;;;;;;;16.21;100.00;96579.22;4984704;28;20233;-65
2023/07/30 04:04:01;;;;;;;6.17;5.67;;;;;;;16.17;100.00;96581.56;5011510;28;20201;-64
2023/07/30 04:06:29;;;;;;;6.13;5.63;;;;;;;16.18;100.00;96571.66;5008817;28;20201;-64
2023/07/30 04:08:56;;;;;;;6.03;5.50;;;;;;;16.19;100.00;96578.63;5018124;28;20391;-62
2023/07/30 04:11:25;;;;;;;6.20;5.70;;;;;;;16.20;100.00;96581.09;5012426;28;20263;-63
2023/07/30 04:13:53;;;;;;;6.10;5.67;;;;;;;16.16;100.00;96590.63;5013630;28;21483;-64
2023/07/30 04:16:20;;;;;;;5.70;5.20;;;;;;;16.19;100.00;96592.84;5007073;28;20814;-68
2023/07/30 04:18:48;;;;;;;6.23;5.67;;;;;;;16.18;100.00;96585.88;5013424;28;20204;-64
2023/07/30 04:21:16;;;;;;;6.13;5.57;;;;;;;16.13;100.00;96592.94;4966295;28;20240;-65
2023/07/30 04:23:45;;;;;;;6.30;5.70;;;;;;;15.96;100.00;96592.84;5001082;28;20196;-64
2023/07/30 04:26:13;;;;;;;6.07;4.90;;;;;;;15.99;100.00;96600.38;4834870;28;20825;-63
2023/07/30 04:28:42;;;;;;;5.77;5.37;;;;;;;15.97;100.00;96592.63;5017958;28;20299;-63
2023/07/30 04:31:10;;;;;;;5.47;5.07;;;;;;;15.90;100.00;96592.72;4956628;28;20327;-63
2023/07/30 04:33:38;;;;;;;6.00;5.60;;;;;;;15.90;100.00;96589.22;5017580;28;20260;-63
2023/07/30 04:36:07;;;;;;;6.00;5.50;;;;;;;15.92;100.00;96603.19;5008182;28;20399;-62
2023/07/30 04:38:36;;;;;;;6.20;5.53;;;;;;;15.88;100.00;96596.66;5013255;28;20201;-63
2023/07/30 04:41:04;;;;;;;5.40;4.97;;;;;;;15.90;100.00;96603.41;5010728;28;20309;-63
2023/07/30 04:43:31;;;;;;;5.83;5.43;;;;;;;15.87;100.00;96611.03;5015529;28;20208;-63
2023/07/30 04:46:01;;;;;;;5.57;5.17;;;;;;;15.85;100.00;96608.63;5012827;28;20196;-62
2023/07/30 04:48:29;;;;;;;5.60;5.20;;;;;;;15.82;100.00;96616.25;5015098;28;20212;-64
2023/07/30 04:50:56;;;;;;;5.10;4.70;;;;;;;15.81;100.00;96615.47;4955131;28;20434;-64
2023/07/30 04:53:24;;;;;;;5.23;4.90;;;;;;;15.75;100.00;96619.88;5010934;28;20262;-60
2023/07/30 04:55:56;;;;;;;5.37;4.87;;;;;;;15.78;100.00;96618.59;4831998;28;20634;-61
2023/07/30 04:58:23;;;;;;;5.13;4.73;;;;;;;15.82;100.00;96629.63;5013962;28;20240;-63
2023/07/30 05:00:52;;;;;;;5.30;4.87;;;;;;;15.76;100.00;96618.03;4962173;28;20738;-61
2023/07/30 05:03:22;;;;;;;5.33;4.90;;;;;;;16.01;100.00;96633.03;5012888;28;20818;-63
2023/07/30 05:05:50;;;;;;;5.80;5.40;;;;;;;16.05;100.00;96634.19;4967505;28;20920;-65
2023/07/30 05:08:18;;;;;;;5.63;5.23;;;;;;;16.19;100.00;96638.25;5011939;28;20317;-63
2023/07/30 05:10:46;;;;;;;5.83;5.33;;;;;;;16.40;100.00;96633.34;5015675;28;20759;-63
2023/07/30 05:13:14;;;;;;;5.47;5.13;;;;;;;16.70;100.00;96639.59;5010009;28;20220;-63
2023/07/30 05:15:42;;;;;;;5.40;5.00;;;;;;;16.85;100.00;96642.56;5011643;28;20307;-64
2023/07/30 05:18:10;;;;;;;5.30;4.90;;;;;;;17.02;100.00;96649.84;5010445;28;20208;-64
2023/07/30 05:20:39;;;;;;;5.17;4.87;;;;;;;17.07;100.00;96648.09;4979875;28;20501;-63
2023/07/30 05:23:07;;;;;;;4.57;4.27;;;;;;;17.03;100.00;96652.28;4995932;28;20294;-64
2023/07/30 05:25:35;;;;;;;4.07;3.80;;;;;;;16.86;100.00;96628.13;4950166;28;20271;-64
2023/07/30 05:28:04;;;;;;;4.07;3.87;;;;;;;17.18;100.00;96651.78;4956852;28;20205;-64
2023/07/30 05:30:32;;;;;;;4.17;3.87;;;;;;;17.60;100.00;96650.63;4988098;28;20845;-63
2023/07/30 05:33:00;;;;;;;4.30;3.90;;;;;;;18.15;100.00;96650.97;4990329;28;20274;-64
2023/07/30 05:35:28;;;;;;;4.80;4.50;;;;;;;18.62;100.00;96639.00;5013035;28;20221;-64
2023/07/30 05:38:00;;;;;;;4.10;3.80;;;;;;;18.62;100.00;96627.47;5010485;28;20655;-64
2023/07/30 05:40:28;;;;;;;3.83;3.53;;;;;;;18.55;100.00;96626.84;4992900;28;20209;-63
2023/07/30 05:42:56;;;;;;;3.33;3.17;;;;;;;18.18;100.00;96617.47;4980760;28;20243;-64
2023/07/30 05:45:24;;;;;;;4.07;3.77;;;;;;;18.06;100.00;96620.28;5012574;28;20268;-64
2023/07/30 05:47:51;;;;;;;4.30;4.00;;;;;;;17.97;100.00;96622.53;5015214;28;20841;-64
2023/07/30 05:50:19;;;;;;;3.20;3.10;;;;;;;17.91;100.00;96624.31;5012730;28;20242;-63
2023/07/30 05:52:47;;;;;;;4.07;3.67;;;;;;;17.81;100.00;96618.00;5012941;28;20268;-64
2023/07/30 05:55:16;;;;;;;3.47;3.17;;;;;;;17.74;100.00;96626.22;5010747;28;20228;-64
2023/07/30 05:57:44;;;;;;;3.47;2.80;;;;;;;17.72;100.00;96629.13;4962207;28;20231;-63
2023/07/30 06:00:13;;;;;;;3.20;3.00;;;;;;;17.68;100.00;96608.44;5004518;28;20204;-63
2023/07/30 06:02:40;;;;;;;3.67;3.30;;;;;;;18.09;100.00;96630.53;4902996;28;20729;-64
2023/07/30 06:05:09;;;;;;;3.53;3.23;;;;;;;18.23;100.00;96625.63;5013156;28;20201;-64
2023/07/30 06:07:36;;;;;;;3.67;3.47;;;;;;;18.40;100.00;96630.13;4951761;28;20205;-64
2023/07/30 06:10:05;;;;;;;3.83;3.60;;;;;;;18.64;100.00;96628.84;5015720;28;20346;-64
2023/07/30 06:12:34;;;;;;;3.40;3.20;;;;;;;18.66;100.00;96634.75;5008942;28;20243;-66
2023/07/30 06:15:01;;;;;;;3.00;2.90;;;;;;;18.68;100.00;96639.88;5012919;28;20880;-63
2023/07/30 06:17:29;;;;;;;3.43;3.23;;;;;;;18.63;100.00;96639.81;4962785;28;20295;-66
2023/07/30 06:20:00;;;;;;;3.33;3.13;;;;;;;18.20;100.00;96647.56;5014911;28;20219;-65
2023/07/30 06:22:28;;;;;;;3.30;3.10;;;;;;;18.19;100.00;96651.31;5012659;28;20354;-65
2023/07/30 06:24:56;;;;;;;3.83;3.53;;;;;;;18.18;100.00;96658.53;5011042;28;20236;-63
2023/07/30 06:27:23;;;;;;;3.53;3.33;;;;;;;18.37;100.00;96650.19;4950050;28;20701;-65
2023/07/30 06:29:53;;;;;;;3.20;2.90;;;;;;;18.40;100.00;96648.91;5010157;28;20254;-64
2023/07/30 06:32:20;;;;;;;3.30;3.10;;;;;;;18.33;100.00;96649.06;4892501;28;20239;-63
2023/07/30 06:34:48;;;;;;;3.07;2.87;;;;;;;18.18;100.00;96647.81;5013641;28;20208;-63
2023/07/30 06:37:16;;;;;;;3.30;3.10;;;;;;;18.16;100.00;96644.56;4949262;28;21193;-62
2023/07/30 06:39:43;;;;;;;3.23;3.03;;;;;;;18.49;100.00;96625.94;5008661;28;20305;-62
2023/07/30 06:42:11;;;;;;;3.27;3.07;;;;;;;18.97;100.00;96645.03;5008261;28;20310;-63
2023/07/30 06:44:38;;;;;;;3.17;2.97;;;;;;;19.27;100.00;96635.72;5013323;28;20220;-64
2023/07/30 06:47:07;;;;;;;3.53;3.33;;;;;;;19.65;100.00;96643.84;4960746;28;20242;-63
2023/07/30 06:49:36;;;;;;;3.07;2.87;;;;;;;19.75;100.00;96629.69;5010356;28;20208;-62
2023/07/30 06:52:05;;;;;;;3.63;3.37;;;;;;;19.96;100.00;96622.63;5010183;28;20224;-61
2023/07/30 06:54:33;;;;;;;4.20;3.90;;;;;;;20.27;100.00;96622.00;5009743;28;20199;-63
2023/07/30 06:57:02;;;;;;;4.63;3.83;;;;;;;19.91;100.00;96620.72;5007651;28;20370;-63
2023/07/30 06:59:30;;;;;;;2.90;2.80;;;;;;;19.81;100.00;96618.72;5011926;28;20212;-63
2023/07/30 07:01:59;;;;;;;3.23;2.73;;;;;;;19.79;100.00;96628.09;4954727;28;20338;-63
2023/07/30 07:04:28;;;;;;;2.77;2.40;;;;;;;19.81;100.00;96629.47;5008550;28;20208;-62
2023/07/30 07:06:55;;;;;;;2.40;2.20;;;;;;;19.45;100.00;96639.94;4883205;28;20228;-61
2023/07/30 07:09:23;;;;;;;2.43;2.30;;;;;;;19.36;100.00;96647.63;5007862;28;20583;-63
2023/07/30 07:11:51;;;;;;;2.37;2.27;;;;;;;19.81;100.00;96647.47;4955846;28;20240;-62
2023/07/30 07:14:19;;;;;;;2.63;2.43;;;;;;;20.34;100.00;96644.13;5016045;28;20716;-63
2023/07/30 07:16:48;;;;;;;2.17;2.07;;;;;;;20.85;100.00;96648.97;5000032;28;20340;-62
2023/07/30 07:19:16;;;;;;;4.10;2.30;;;;;;;20.36;100.00;96650.03;5009395;28;20306;-65
2023/07/30 07:21:45;;;;;;;2.13;1.77;;;;;;;20.47;100.00;96637.47;4960115;28;20348;-65
2023/07/30 07:24:12;;;;;;;2.17;1.97;;;;;;;20.49;100.00;96641.50;5012863;28;20208;-66
2023/07/30 07:26:40;;;;;;;2.23;2.10;;;;;;;20.51;100.00;96643.94;5003947;28;20233;-64
2023/07/30 07:29:08;;;;;;;2.17;2.07;;;;;;;20.33;100.00;96640.59;5008064;28;20205;-64
2023/07/30 07:31:35;;;;;;;2.10;2.00;;;;;;;20.56;100.00;96640.44;5005640;28;20349;-63
2023/07/30 07:34:03;;;;;;;1.93;1.83;;;;;;;;;;5013481;28;20208;-62
2023/07/30 07:36:31;;;;;;;2.30;2.10;;;;;;;20.88;100.00;96636.84;4886415;28;20220;-65
2023/07/30 07:39:00;;;;;;;2.07;1.97;;;;;;;20.90;100.00;96630.13;5012305;28;20497;-64
2023/07/30 07:41:27;;;;;;;2.73;2.53;;;;;;;20.87;100.00;96637.91;4952200;28;20554;-64
2023/07/30 07:43:55;;;;;;;1.60;1.50;;;;;;;20.60;100.00;96625.38;5013635;28;20258;-64
2023/07/30 07:46:23;;;;;;;1.93;1.83;;;;;;;20.63;100.00;96641.00;5013232;28;20647;-60
2023/07/30 07:48:51;;;;;;;2.03;1.93;;;;;;;20.81;100.00;96642.47;5018938;28;20648;-62
2023/07/30 07:51:18;;;;;;;2.03;1.93;;;;;;;20.78;100.00;96643.78;5012852;28;20285;-61
2023/07/30 07:53:46;;;;;;;1.77;1.67;;;;;;;20.23;100.00;96622.50;4959281;28;20200;-63
2023/07/30 07:56:15;;;;;;;1.90;1.80;;;;;;;20.71;100.00;96637.00;5014718;28;20741;-64
2023/07/30 07:58:43;;;;;;;2.27;2.10;;;;;;;20.95;100.00;96635.53;5012330;28;20338;-63
2023/07/30 08:01:11;;;;;;;2.23;2.10;;;;;;;20.69;100.00;96634.59;5019300;28;20734;-63
2023/07/30 08:03:38;;;;;;;1.40;1.40;;;;;;;20.97;100.00;96632.56;5013930;28;20229;-65
2023/07/30 08:06:06;;;;;;;1.70;1.70;;;;;;;20.90;100.00;96630.13;5012877;28;20497;-63
2023/07/30 08:08:34;;;;;;;2.30;2.10;;;;;;;20.59;100.00;96634.53;4883670;28;20681;-63
2023/07/30 08:11:05;;;;;;;2.20;1.93;;;;;;;20.78;100.00;96640.28;5017186;28;20232;-62
2023/07/30 08:13:35;;;;;;;2.60;2.43;;;;;;;20.88;100.00;96642.22;4958118;28;20212;-63
2023/07/30 08:16:03;;;;;;;1.70;1.60;;;;;;;20.97;100.00;96654.09;5016474;28;21077;-64
2023/07/30 08:18:31;;;;;;;1.90;1.80;;;;;;;20.85;100.00;96643.59;5010439;28;20240;-63
2023/07/30 08:20:58;;;;;;;2.43;2.33;;;;;;;20.71;100.00;96651.28;5018157;28;20228;-64
2023/07/30 08:23:26;;;;;;;1.80;1.70;;;;;;;20.78;100.00;96651.03;4963021;28;20250;-63
2023/07/30 08:25:53;;;;;;;1.73;1.63;;;;;;;20.11;100.00;96654.19;5016016;28;20255;-65
2023/07/30 08:28:21;;;;;;;2.27;2.17;;;;;;;20.17;100.00;96653.13;4945229;28;20213;-64
2023/07/30 08:30:50;;;;;;;2.20;2.10;;;;;;;20.18;100.00;96654.75;5013113;28;20299;-65
2023/07/30 08:33:18;;;;;;;2.40;2.30;;;;;;;20.13;100.00;96659.31;5012096;28;20619;-65
2023/07/30 08:35:46;;;;;;;2.77;1.80;;;;;;;20.00;100.00;96652.50;5014000;28;20369;-65
2023/07/30 08:38:13;;;;;;;2.40;2.30;;;;;;;20.43;100.00;96653.31;4883132;28;20985;-65
2023/07/30 08:40:41;;;;;;;2.20;2.10;;;;;;;21.02;100.00;96647.94;5016082;28;20209;-65
2023/07/30 08:43:09;;;;;;;2.23;1.97;;;;;;;21.82;100.00;96646.75;4957017;28;20653;-64
2023/07/30 08:45:36;;;;;;;1.90;1.80;;;;;;;22.29;100.00;96644.00;5013072;28;20231;-64
2023/07/30 08:48:06;;;;;;;1.90;1.80;;;;;;;22.73;100.00;96640.66;5013864;28;20508;-64
2023/07/30 08:50:34;;;;;;;1.90;1.80;;;;;;;23.34;100.00;96638.75;5023489;28;20259;-64
2023/07/30 08:53:03;;;;;;;2.30;2.20;;;;;;;23.97;100.00;96644.50;4961371;28;20314;-65
2023/07/30 08:55:34;;;;;;;1.87;1.77;;;;;;;22.68;100.00;96641.47;5015115;28;20204;-64
2023/07/30 08:58:02;;;;;;;2.23;2.13;;;;;;;22.90;100.00;96640.31;4948130;28;20232;-64
2023/07/30 09:00:34;;;;;;;2.10;2.00;;;;;;;22.89;100.00;96640.56;5011886;28;20208;-64
2023/07/30 09:03:04;;;;;;;2.00;1.90;;;;;;;22.74;100.00;96634.16;5011722;28;20231;-65
2023/07/30 09:05:33;;;;;;;2.00;1.90;;;;;;;22.79;100.00;96623.34;5012454;28;20204;-62
2023/07/30 09:08:01;;;;;;;2.53;2.33;;;;;;;23.23;100.00;96619.06;4962939;28;20691;-62
2023/07/30 09:10:29;;;;;;;1.40;1.40;;;;;;;22.90;100.00;96615.19;5013225;28;20216;-62
2023/07/30 09:12:58;;;;;;;1.83;1.83;;;;;;;22.82;100.00;96617.38;4890189;28;20252;-63
2023/07/30 09:15:32;;;;;;;1.97;1.87;;;;;;;22.87;100.00;96604.94;5019576;28;20200;-63
2023/07/30 09:17:59;;;;;;;2.10;2.00;;;;;;;21.94;100.00;96620.31;4962601;28;20228;-63
2023/07/30 09:20:27;;;;;;;1.33;1.33;;;;;;;21.51;100.00;96625.94;5014676;28;20801;-62
2023/07/30 09:22:58;;;;;;;1.60;1.50;;;;;;;-148.82;100.00;60434.72;4948462;28;20235;-62
2023/07/30 09:25:26;;;;;;;1.87;1.77;;;;;;;-148.82;100.00;60434.72;5014864;28;20204;-62
2023/07/30 09:27:54;;;;;;;2.73;1.87;;;;;;;-148.82;100.00;60434.72;4958903;28;20251;-63
2023/07/30 09:30:25;;;;;;;1.63;1.53;;;;;;;-148.82;100.00;60434.72;5014445;28;20208;-61
2023/07/30 09:32:54;;;;;;;1.60;1.60;;;;;;;-148.82;100.00;60434.72;4948211;28;20314;-63
2023/07/30 09:35:24;;;;;;;1.80;1.70;;;;;;;-148.82;100.00;60434.72;5013607;28;20251;-63
2023/07/30 09:38:01;;;;;;;1.83;1.70;;;;;;;-148.82;100.00;60434.72;5012903;28;21362;-63
2023/07/30 09:40:32;;;;;;;1.97;1.87;;;;;;;;;;5014375;28;20215;-64
2023/07/30 09:43:00;;;;;;;1.73;1.73;;;;;;;;;;4958694;28;20211;-65
2023/07/30 09:45:27;;;;;;;1.50;1.50;;;;;;;-148.82;100.00;60434.72;5012871;28;20285;-66
2023/07/30 09:47:56;;;;;;;2.00;1.90;;;;;;;;;;4883089;28;20239;-65
2023/07/30 09:50:24;;;;;;;1.53;1.53;;;;;;;;;;5015970;28;20204;-64
2023/07/30 09:52:52;;;;;;;1.73;1.63;;;;;;;-148.82;100.00;60434.72;4961668;28;20251;-65
2023/07/30 09:55:21;;;;;;;1.93;1.83;;;;;;;-148.82;100.00;60434.72;5014528;28;20816;-63
2023/07/30 09:57:48;;;;;;;2.63;1.97;;;;;;;;;;4957168;28;20239;-62
2023/07/30 10:00:16;;;;;;;1.90;1.80;;;;;;;;;;5016882;28;20296;-62
2023/07/30 10:02:46;;;;;;;4.13;1.97;;;;;;;;;;5009341;28;20777;-64
2023/07/30 10:05:15;;;;;;;2.20;2.10;;;;;;;;;;5013931;28;20193;-64
2023/07/30 10:07:45;;;;;;;2.20;2.10;;;;;;;;;;5009436;28;20668;-63
2023/07/30 10:10:13;;;;;;;2.27;2.10;;;;;;;;;;5014137;28;20239;-64
2023/07/30 10:12:42;;;;;;;2.73;2.30;;;;;;;;;;4958851;28;20316;-63
2023/07/30 10:15:10;;;;;;;2.30;2.07;;;;;;;;;;5009354;28;20439;-63
2023/07/30 10:17:37;;;;;;;2.40;2.10;;;;;;;;;;4888497;28;20218;-64
2023/07/30 10:20:22;;;;;;;2.30;2.20;;;;;;;-148.82;100.00;60434.72;5014777;28;20394;-65
2023/07/30 10:22:52;;;;;;;3.00;2.23;;;;;;;;;;5010964;28;20271;-63
2023/07/30 10:25:22;;;;;;;2.40;2.30;;;;;;;-148.82;100.00;60434.72;5012361;28;20262;-64
2023/07/30 10:27:52;;;;;;;2.70;2.60;;;;;;;;;;4959335;28;20287;-63
2023/07/30 10:30:20;;;;;;;2.50;2.40;;;;;;;-148.82;100.00;60434.72;5013114;28;20205;-64
2023/07/30 10:33:03;;;;;;;3.43;2.70;;;;;;;-148.82;100.00;60434.72;5009460;28;20224;-63
2023/07/30 10:35:39;;;;;;;3.70;3.40;;;;;;;-148.82;100.00;60434.72;5012280;28;20674;-63
2023/07/30 10:38:15;;;;;;;2.87;2.77;;;;;;;-148.82;100.00;60434.72;5011386;28;20279;-61
2023/07/30 10:40:43;;;;;;;2.73;2.47;;;;;;;-148.82;100.00;60434.72;5016313;28;20293;-63
2023/07/30 10:43:18;;;;;;;2.93;2.73;;;;;;;;;;4946740;28;20211;-61
2023/07/30 10:45:52;;;;;;;2.90;2.60;;;;;;;-148.82;100.00;60434.72;5012142;28;20258;-63
2023/07/30 10:48:19;;;;;;;5.30;2.83;;;;;;;;;;4888649;28;20318;-63
2023/07/30 10:50:48;;;;;;;2.37;2.27;;;;;;;;;;5009699;28;20779;-63
2023/07/30 10:53:18;;;;;;;2.37;2.27;;;;;;;;;;4948774;28;20234;-63
2023/07/30 10:55:46;;;;;;;2.70;1.93;;;;;;;22.68;nan;96589.38;5011595;28;20208;-62
2023/07/30 10:58:14;;;;;;;2.53;2.03;;;;;;;;;;4953651;28;20220;-64
2023/07/30 11:00:43;;;;;;;3.07;2.53;;;;;;;41.96;100.00;60434.72;5010846;28;20235;-63
2023/07/30 11:03:11;;;;;;;2.03;1.97;;;;;;;-148.82;100.00;60434.72;5004660;28;20278;-65
2023/07/30 11:05:39;;;;;;;2.40;2.30;;;;;;;;;;5016792;28;20300;-63
2023/07/30 11:08:06;;;;;;;2.60;2.00;;;;;;;24.47;nan;96587.47;5004538;28;20395;-64
2023/07/30 11:10:43;;;;;;;2.93;2.80;;;;;;;24.35;nan;96585.16;5010086;28;20239;-63
2023/07/30 11:13:10;;;;;;;2.10;2.00;;;;;;;24.20;nan;96605.06;5005744;28;20231;-63
2023/07/30 11:15:43;;;;;;;2.17;2.07;;;;;;;24.46;nan;96604.00;5007769;28;20211;-63
2023/07/30 11:18:12;;;;;;;1.67;1.67;;;;;;;24.37;nan;96603.81;4889008;28;20299;-64
2023/07/30 11:20:40;;;;;;;1.73;1.73;;;;;;;24.39;nan;96618.69;5008469;28;20208;-65
2023/07/30 11:23:21;;;;;;;2.10;2.00;;;;;;;24.18;nan;96612.69;4944468;28;20242;-65
2023/07/30 11:25:50;;;;;;;2.27;2.17;;;;;;;24.01;nan;96628.53;5012684;28;20778;-64
2023/07/30 11:28:30;;;;;;;2.03;1.93;;;;;;;23.23;nan;96610.97;4956816;28;20209;-62
2023/07/30 11:31:02;;;;;;;2.13;2.03;;;;;;;22.93;nan;96617.34;5010952;28;20665;-65
2023/07/30 11:33:30;;;;;;;2.03;1.93;;;;;;;22.78;nan;96632.53;5008742;28;20644;-63
2023/07/30 11:36:01;;;;;;;1.70;1.60;;;;;;;22.72;nan;96622.84;5011959;28;20204;-65
2023/07/30 11:38:29;;;;;;;2.13;1.97;;;;;;;22.40;nan;96622.13;4952642;28;20228;-64
2023/07/30 11:40:57;;;;;;;1.80;1.70;;;;;;;21.66;nan;96635.16;5010452;28;20224;-64
2023/07/30 11:43:25;;;;;;;1.70;1.60;;;;;;;20.98;nan;96636.06;5007031;28;20208;-64
2023/07/30 11:46:08;;;;;;;2.33;2.13;;;;;;;;;;5006926;28;20580;-63